Aurelia, North Dakota
Current Conditions -  °F | °C
As of 10:15 AM on Friday 21 Nov 2014 (Local Time) from K08D Reporting Station
Clear Clear  
Wind Chill: 26°   Ceiling: Unl
Heat Index: 37°   Visibility: 10mi
Dew Point: 28°   Wind: 23mph
Humidity: 70%   Direction: 230°SW
Pressure: 29.62"   Gusts: 31mph
Location:  48.4598°N, 101.907°W
Report Text: K08D 211615Z AUTO 23020G27KT 10SM CLR 03/M02 A2962 RMK AO2
Loading
Personal Weather Stations






























Interactive Weather Map New forecast layout! Learn more

10-Day Weather Forecast

Advertisements
Track Severe Weather on mobile